sensor_id;sensor_type;location;lat;lon;timestamp;P1;durP1;ratioP1;P2;durP2;ratioP2
1693;SDS011;844;47.058;15.472;2022-08-25T00:00:20;7.43;;;6.80;;
1693;SDS011;844;47.058;15.472;2022-08-25T00:02:49;6.87;;;6.20;;
1693;SDS011;844;47.058;15.472;2022-08-25T00:05:25;6.33;;;5.90;;
1693;SDS011;844;47.058;15.472;2022-08-25T00:07:59;6.90;;;6.30;;
1693;SDS011;844;47.058;15.472;2022-08-25T00:10:29;6.67;;;6.17;;
1693;SDS011;844;47.058;15.472;2022-08-25T00:13:00;7.27;;;6.33;;
1693;SDS011;844;47.058;15.472;2022-08-25T00:15:30;7.27;;;6.77;;
1693;SDS011;844;47.058;15.472;2022-08-25T00:18:00;6.60;;;6.10;;
1693;SDS011;844;47.058;15.472;2022-08-25T00:20:37;6.70;;;6.00;;
1693;SDS011;844;47.058;15.472;2022-08-25T00:23:14;5.97;;;5.47;;
1693;SDS011;844;47.058;15.472;2022-08-25T00:25:43;7.03;;;6.43;;
1693;SDS011;844;47.058;15.472;2022-08-25T00:28:15;7.20;;;6.50;;
1693;SDS011;844;47.058;15.472;2022-08-25T00:30:45;6.50;;;6.00;;
1693;SDS011;844;47.058;15.472;2022-08-25T00:33:15;6.47;;;5.87;;
1693;SDS011;844;47.058;15.472;2022-08-25T00:35:45;7.10;;;6.50;;
1693;SDS011;844;47.058;15.472;2022-08-25T00:38:14;5.90;;;5.47;;
1693;SDS011;844;47.058;15.472;2022-08-25T00:40:43;7.30;;;6.70;;
1693;SDS011;844;47.058;15.472;2022-08-25T00:43:34;7.60;;;7.00;;
1693;SDS011;844;47.058;15.472;2022-08-25T00:46:14;7.10;;;6.60;;
1693;SDS011;844;47.058;15.472;2022-08-25T00:48:48;6.57;;;6.03;;
1693;SDS011;844;47.058;15.472;2022-08-25T00:51:25;9.40;;;6.73;;
1693;SDS011;844;47.058;15.472;2022-08-25T00:54:01;7.53;;;6.90;;
1693;SDS011;844;47.058;15.472;2022-08-25T00:56:32;6.47;;;5.87;;
1693;SDS011;844;47.058;15.472;2022-08-25T00:59:03;7.13;;;6.63;;
1693;SDS011;844;47.058;15.472;2022-08-25T01:01:33;6.50;;;6.00;;
1693;SDS011;844;47.058;15.472;2022-08-25T01:04:02;6.77;;;6.17;;
1693;SDS011;844;47.058;15.472;2022-08-25T01:06:32;6.90;;;6.30;;
1693;SDS011;844;47.058;15.472;2022-08-25T01:09:04;7.27;;;6.80;;
1693;SDS011;844;47.058;15.472;2022-08-25T01:11:34;6.27;;;5.77;;
1693;SDS011;844;47.058;15.472;2022-08-25T01:14:06;7.13;;;6.53;;
1693;SDS011;844;47.058;15.472;2022-08-25T01:16:37;7.30;;;6.60;;
1693;SDS011;844;47.058;15.472;2022-08-25T01:19:09;7.30;;;6.80;;
1693;SDS011;844;47.058;15.472;2022-08-25T01:21:44;7.43;;;6.67;;
1693;SDS011;844;47.058;15.472;2022-08-25T01:24:23;6.60;;;6.00;;
1693;SDS011;844;47.058;15.472;2022-08-25T01:27:04;6.70;;;6.10;;
1693;SDS011;844;47.058;15.472;2022-08-25T01:29:34;6.80;;;6.30;;
1693;SDS011;844;47.058;15.472;2022-08-25T01:32:05;7.23;;;6.60;;
1693;SDS011;844;47.058;15.472;2022-08-25T01:34:38;6.97;;;6.37;;
1693;SDS011;844;47.058;15.472;2022-08-25T01:37:14;7.33;;;6.80;;
1693;SDS011;844;47.058;15.472;2022-08-25T01:39:45;6.90;;;6.30;;
1693;SDS011;844;47.058;15.472;2022-08-25T01:42:19;6.70;;;6.20;;
1693;SDS011;844;47.058;15.472;2022-08-25T01:45:05;6.90;;;6.30;;
1693;SDS011;844;47.058;15.472;2022-08-25T01:47:36;7.70;;;7.10;;
1693;SDS011;844;47.058;15.472;2022-08-25T01:50:06;6.30;;;5.73;;
1693;SDS011;844;47.058;15.472;2022-08-25T01:52:42;6.90;;;6.40;;
1693;SDS011;844;47.058;15.472;2022-08-25T01:55:17;8.57;;;7.67;;
1693;SDS011;844;47.058;15.472;2022-08-25T01:57:47;8.40;;;7.80;;
1693;SDS011;844;47.058;15.472;2022-08-25T02:00:16;7.73;;;7.03;;
1693;SDS011;844;47.058;15.472;2022-08-25T02:02:48;7.03;;;6.43;;
1693;SDS011;844;47.058;15.472;2022-08-25T02:05:21;7.93;;;7.23;;
1693;SDS011;844;47.058;15.472;2022-08-25T02:07:51;7.90;;;7.17;;
1693;SDS011;844;47.058;15.472;2022-08-25T02:10:21;8.50;;;7.70;;
1693;SDS011;844;47.058;15.472;2022-08-25T02:12:50;7.40;;;6.70;;
1693;SDS011;844;47.058;15.472;2022-08-25T02:15:20;7.37;;;6.77;;
1693;SDS011;844;47.058;15.472;2022-08-25T02:17:49;8.43;;;7.80;;
1693;SDS011;844;47.058;15.472;2022-08-25T02:20:18;7.50;;;6.70;;
1693;SDS011;844;47.058;15.472;2022-08-25T02:22:49;7.40;;;6.63;;
1693;SDS011;844;47.058;15.472;2022-08-25T02:25:22;7.73;;;6.90;;
1693;SDS011;844;47.058;15.472;2022-08-25T02:27:51;7.73;;;6.80;;
1693;SDS011;844;47.058;15.472;2022-08-25T02:30:21;7.30;;;6.80;;
1693;SDS011;844;47.058;15.472;2022-08-25T02:32:50;7.03;;;6.43;;
1693;SDS011;844;47.058;15.472;2022-08-25T02:35:20;7.17;;;6.57;;
1693;SDS011;844;47.058;15.472;2022-08-25T02:37:51;7.30;;;6.73;;
1693;SDS011;844;47.058;15.472;2022-08-25T02:40:21;7.63;;;6.93;;
1693;SDS011;844;47.058;15.472;2022-08-25T02:42:50;6.90;;;6.40;;
1693;SDS011;844;47.058;15.472;2022-08-25T02:45:19;7.10;;;6.43;;
1693;SDS011;844;47.058;15.472;2022-08-25T02:47:49;8.10;;;7.40;;
1693;SDS011;844;47.058;15.472;2022-08-25T02:50:18;7.57;;;6.83;;
1693;SDS011;844;47.058;15.472;2022-08-25T02:52:47;7.17;;;6.57;;
1693;SDS011;844;47.058;15.472;2022-08-25T02:55:19;7.10;;;6.50;;
1693;SDS011;844;47.058;15.472;2022-08-25T02:57:49;6.63;;;6.13;;
1693;SDS011;844;47.058;15.472;2022-08-25T03:00:18;8.10;;;7.47;;
1693;SDS011;844;47.058;15.472;2022-08-25T03:02:48;7.73;;;7.03;;
1693;SDS011;844;47.058;15.472;2022-08-25T03:05:22;7.73;;;7.10;;
1693;SDS011;844;47.058;15.472;2022-08-25T03:07:52;7.20;;;5.90;;
1693;SDS011;844;47.058;15.472;2022-08-25T03:10:25;8.20;;;6.67;;
1693;SDS011;844;47.058;15.472;2022-08-25T03:12:54;6.67;;;6.07;;
1693;SDS011;844;47.058;15.472;2022-08-25T03:15:23;6.80;;;6.30;;
1693;SDS011;844;47.058;15.472;2022-08-25T03:17:56;6.20;;;5.70;;
1693;SDS011;844;47.058;15.472;2022-08-25T03:20:29;6.33;;;5.83;;
1693;SDS011;844;47.058;15.472;2022-08-25T03:23:01;7.27;;;6.67;;
1693;SDS011;844;47.058;15.472;2022-08-25T03:25:32;7.40;;;6.80;;
1693;SDS011;844;47.058;15.472;2022-08-25T03:28:21;7.43;;;6.73;;
1693;SDS011;844;47.058;15.472;2022-08-25T03:30:56;6.43;;;6.03;;
1693;SDS011;844;47.058;15.472;2022-08-25T03:33:26;7.40;;;6.80;;
1693;SDS011;844;47.058;15.472;2022-08-25T03:35:55;6.57;;;6.07;;
1693;SDS011;844;47.058;15.472;2022-08-25T03:38:25;6.83;;;6.33;;
1693;SDS011;844;47.058;15.472;2022-08-25T03:40:57;6.80;;;6.30;;
1693;SDS011;844;47.058;15.472;2022-08-25T03:43:26;8.07;;;7.37;;
1693;SDS011;844;47.058;15.472;2022-08-25T03:45:55;6.93;;;6.33;;
1693;SDS011;844;47.058;15.472;2022-08-25T03:48:24;7.57;;;6.77;;
1693;SDS011;844;47.058;15.472;2022-08-25T03:50:55;8.43;;;6.73;;
1693;SDS011;844;47.058;15.472;2022-08-25T03:53:24;6.40;;;5.90;;
1693;SDS011;844;47.058;15.472;2022-08-25T03:55:53;7.40;;;6.80;;
1693;SDS011;844;47.058;15.472;2022-08-25T03:58:27;6.23;;;5.63;;
1693;SDS011;844;47.058;15.472;2022-08-25T04:00:59;7.03;;;6.43;;
1693;SDS011;844;47.058;15.472;2022-08-25T04:03:29;7.67;;;7.07;;
1693;SDS011;844;47.058;15.472;2022-08-25T04:05:59;6.63;;;6.13;;
1693;SDS011;844;47.058;15.472;2022-08-25T04:08:29;7.30;;;6.20;;
1693;SDS011;844;47.058;15.472;2022-08-25T04:10:58;6.93;;;6.43;;
1693;SDS011;844;47.058;15.472;2022-08-25T04:13:38;6.63;;;6.03;;
1693;SDS011;844;47.058;15.472;2022-08-25T04:16:23;6.97;;;6.37;;
1693;SDS011;844;47.058;15.472;2022-08-25T04:18:56;6.87;;;6.37;;
1693;SDS011;844;47.058;15.472;2022-08-25T04:21:29;6.97;;;6.40;;
1693;SDS011;844;47.058;15.472;2022-08-25T04:23:58;7.60;;;7.07;;
1693;SDS011;844;47.058;15.472;2022-08-25T04:26:28;8.50;;;7.60;;
1693;SDS011;844;47.058;15.472;2022-08-25T04:29:01;8.63;;;7.83;;
1693;SDS011;844;47.058;15.472;2022-08-25T04:31:32;7.53;;;6.93;;
1693;SDS011;844;47.058;15.472;2022-08-25T04:34:04;8.07;;;6.50;;
1693;SDS011;844;47.058;15.472;2022-08-25T04:36:53;8.10;;;7.40;;
1693;SDS011;844;47.058;15.472;2022-08-25T04:39:23;7.13;;;6.57;;
1693;SDS011;844;47.058;15.472;2022-08-25T04:41:51;6.97;;;6.27;;
1693;SDS011;844;47.058;15.472;2022-08-25T04:44:23;7.90;;;7.20;;
1693;SDS011;844;47.058;15.472;2022-08-25T04:46:52;7.27;;;6.77;;
1693;SDS011;844;47.058;15.472;2022-08-25T04:49:21;7.43;;;6.77;;
1693;SDS011;844;47.058;15.472;2022-08-25T04:51:51;9.97;;;7.17;;
1693;SDS011;844;47.058;15.472;2022-08-25T04:54:20;6.73;;;6.23;;
1693;SDS011;844;47.058;15.472;2022-08-25T04:56:49;8.23;;;7.53;;
1693;SDS011;844;47.058;15.472;2022-08-25T04:59:25;7.20;;;6.60;;
1693;SDS011;844;47.058;15.472;2022-08-25T05:01:56;6.17;;;5.67;;
1693;SDS011;844;47.058;15.472;2022-08-25T05:04:31;7.90;;;7.23;;
1693;SDS011;844;47.058;15.472;2022-08-25T05:07:02;7.47;;;6.83;;
1693;SDS011;844;47.058;15.472;2022-08-25T05:09:33;8.03;;;7.40;;
1693;SDS011;844;47.058;15.472;2022-08-25T05:12:03;8.03;;;7.40;;
1693;SDS011;844;47.058;15.472;2022-08-25T05:14:34;8.77;;;7.90;;
1693;SDS011;844;47.058;15.472;2022-08-25T05:17:03;7.87;;;7.17;;
1693;SDS011;844;47.058;15.472;2022-08-25T05:19:33;7.80;;;7.30;;
1693;SDS011;844;47.058;15.472;2022-08-25T05:22:03;8.10;;;7.30;;
1693;SDS011;844;47.058;15.472;2022-08-25T05:24:32;8.00;;;7.20;;
1693;SDS011;844;47.058;15.472;2022-08-25T05:27:02;8.77;;;7.97;;
1693;SDS011;844;47.058;15.472;2022-08-25T05:29:31;11.77;;;7.50;;
1693;SDS011;844;47.058;15.472;2022-08-25T05:32:01;8.17;;;7.60;;
1693;SDS011;844;47.058;15.472;2022-08-25T05:34:31;7.40;;;6.70;;
1693;SDS011;844;47.058;15.472;2022-08-25T05:37:00;9.00;;;8.10;;
1693;SDS011;844;47.058;15.472;2022-08-25T05:39:30;8.73;;;7.90;;
1693;SDS011;844;47.058;15.472;2022-08-25T05:41:59;7.90;;;7.27;;
1693;SDS011;844;47.058;15.472;2022-08-25T05:44:28;8.60;;;7.90;;
1693;SDS011;844;47.058;15.472;2022-08-25T05:46:58;6.70;;;6.20;;
1693;SDS011;844;47.058;15.472;2022-08-25T05:49:30;8.87;;;8.10;;
1693;SDS011;844;47.058;15.472;2022-08-25T05:52:00;8.27;;;7.47;;
1693;SDS011;844;47.058;15.472;2022-08-25T05:54:30;9.37;;;8.47;;
1693;SDS011;844;47.058;15.472;2022-08-25T05:56:59;7.70;;;6.93;;
1693;SDS011;844;47.058;15.472;2022-08-25T05:59:28;10.20;;;7.10;;
1693;SDS011;844;47.058;15.472;2022-08-25T06:01:57;8.80;;;8.00;;
1693;SDS011;844;47.058;15.472;2022-08-25T06:04:45;8.13;;;7.47;;
1693;SDS011;844;47.058;15.472;2022-08-25T06:07:14;9.07;;;8.27;;
1693;SDS011;844;47.058;15.472;2022-08-25T06:09:43;9.67;;;8.13;;
1693;SDS011;844;47.058;15.472;2022-08-25T06:12:15;8.30;;;7.03;;
1693;SDS011;844;47.058;15.472;2022-08-25T06:14:47;8.77;;;8.03;;
1693;SDS011;844;47.058;15.472;2022-08-25T06:17:16;10.47;;;8.47;;
1693;SDS011;844;47.058;15.472;2022-08-25T06:19:46;8.10;;;7.30;;
1693;SDS011;844;47.058;15.472;2022-08-25T06:22:15;8.53;;;7.83;;
1693;SDS011;844;47.058;15.472;2022-08-25T06:24:44;10.07;;;9.27;;
1693;SDS011;844;47.058;15.472;2022-08-25T06:27:13;7.63;;;7.00;;
1693;SDS011;844;47.058;15.472;2022-08-25T06:29:42;9.33;;;8.60;;
1693;SDS011;844;47.058;15.472;2022-08-25T06:32:11;9.80;;;8.83;;
1693;SDS011;844;47.058;15.472;2022-08-25T06:34:39;7.93;;;7.33;;
1693;SDS011;844;47.058;15.472;2022-08-25T06:37:10;8.53;;;7.83;;
1693;SDS011;844;47.058;15.472;2022-08-25T06:39:40;8.40;;;7.70;;
1693;SDS011;844;47.058;15.472;2022-08-25T06:42:10;8.30;;;7.50;;
1693;SDS011;844;47.058;15.472;2022-08-25T06:44:39;8.60;;;7.60;;
1693;SDS011;844;47.058;15.472;2022-08-25T06:47:08;8.73;;;8.03;;
1693;SDS011;844;47.058;15.472;2022-08-25T06:49:37;8.37;;;7.57;;
1693;SDS011;844;47.058;15.472;2022-08-25T06:52:07;8.67;;;7.70;;
1693;SDS011;844;47.058;15.472;2022-08-25T06:54:41;8.90;;;8.10;;
1693;SDS011;844;47.058;15.472;2022-08-25T06:57:15;9.23;;;8.07;;
1693;SDS011;844;47.058;15.472;2022-08-25T06:59:44;9.07;;;8.30;;
1693;SDS011;844;47.058;15.472;2022-08-25T07:02:19;10.20;;;9.30;;
1693;SDS011;844;47.058;15.472;2022-08-25T07:04:48;9.70;;;8.90;;
1693;SDS011;844;47.058;15.472;2022-08-25T07:07:19;9.50;;;8.70;;
1693;SDS011;844;47.058;15.472;2022-08-25T07:09:50;9.23;;;8.47;;
1693;SDS011;844;47.058;15.472;2022-08-25T07:12:19;9.93;;;8.17;;
1693;SDS011;844;47.058;15.472;2022-08-25T07:14:51;11.07;;;9.33;;
1693;SDS011;844;47.058;15.472;2022-08-25T07:17:40;10.03;;;8.97;;
1693;SDS011;844;47.058;15.472;2022-08-25T07:20:10;10.50;;;9.50;;
1693;SDS011;844;47.058;15.472;2022-08-25T07:22:39;12.47;;;9.27;;
1693;SDS011;844;47.058;15.472;2022-08-25T07:25:10;9.73;;;8.93;;
1693;SDS011;844;47.058;15.472;2022-08-25T07:27:41;13.93;;;11.07;;
1693;SDS011;844;47.058;15.472;2022-08-25T07:30:10;9.77;;;8.80;;
1693;SDS011;844;47.058;15.472;2022-08-25T07:32:39;10.40;;;9.23;;
1693;SDS011;844;47.058;15.472;2022-08-25T07:35:09;10.13;;;9.23;;
1693;SDS011;844;47.058;15.472;2022-08-25T07:37:50;13.50;;;10.00;;
1693;SDS011;844;47.058;15.472;2022-08-25T07:40:26;12.57;;;11.00;;
1693;SDS011;844;47.058;15.472;2022-08-25T07:42:59;12.23;;;11.07;;
1693;SDS011;844;47.058;15.472;2022-08-25T07:45:33;11.87;;;10.87;;
1693;SDS011;844;47.058;15.472;2022-08-25T07:48:15;10.87;;;9.83;;
1693;SDS011;844;47.058;15.472;2022-08-25T07:50:47;12.97;;;11.13;;
1693;SDS011;844;47.058;15.472;2022-08-25T07:53:17;10.70;;;9.77;;
1693;SDS011;844;47.058;15.472;2022-08-25T07:55:49;20.90;;;10.87;;
1693;SDS011;844;47.058;15.472;2022-08-25T07:58:19;11.83;;;10.70;;
1693;SDS011;844;47.058;15.472;2022-08-25T08:00:48;12.60;;;10.23;;
1693;SDS011;844;47.058;15.472;2022-08-25T08:03:19;12.97;;;11.83;;
1693;SDS011;844;47.058;15.472;2022-08-25T08:06:09;11.53;;;10.33;;
1693;SDS011;844;47.058;15.472;2022-08-25T08:08:41;12.00;;;11.03;;
1693;SDS011;844;47.058;15.472;2022-08-25T08:11:17;12.37;;;11.27;;
1693;SDS011;844;47.058;15.472;2022-08-25T08:13:49;12.10;;;10.83;;
1693;SDS011;844;47.058;15.472;2022-08-25T08:16:19;14.10;;;12.60;;
1693;SDS011;844;47.058;15.472;2022-08-25T08:18:51;11.80;;;10.77;;
1693;SDS011;844;47.058;15.472;2022-08-25T08:21:22;11.77;;;10.20;;
1693;SDS011;844;47.058;15.472;2022-08-25T08:23:55;11.80;;;10.80;;
1693;SDS011;844;47.058;15.472;2022-08-25T08:26:27;13.43;;;11.80;;
1693;SDS011;844;47.058;15.472;2022-08-25T08:29:17;12.80;;;11.53;;
1693;SDS011;844;47.058;15.472;2022-08-25T08:31:48;14.43;;;11.33;;
1693;SDS011;844;47.058;15.472;2022-08-25T08:34:17;12.00;;;10.80;;
1693;SDS011;844;47.058;15.472;2022-08-25T08:36:51;15.77;;;11.67;;
1693;SDS011;844;47.058;15.472;2022-08-25T08:39:20;11.73;;;10.47;;
1693;SDS011;844;47.058;15.472;2022-08-25T08:41:54;13.67;;;12.17;;
1693;SDS011;844;47.058;15.472;2022-08-25T08:44:52;11.77;;;10.67;;
1693;SDS011;844;47.058;15.472;2022-08-25T08:47:50;14.00;;;11.90;;
1693;SDS011;844;47.058;15.472;2022-08-25T08:50:33;14.20;;;11.27;;
1693;SDS011;844;47.058;15.472;2022-08-25T08:53:10;14.10;;;12.80;;
1693;SDS011;844;47.058;15.472;2022-08-25T08:55:48;14.77;;;13.27;;
1693;SDS011;844;47.058;15.472;2022-08-25T08:58:23;19.00;;;13.30;;
1693;SDS011;844;47.058;15.472;2022-08-25T09:01:03;15.30;;;13.07;;
1693;SDS011;844;47.058;15.472;2022-08-25T09:03:36;13.37;;;12.07;;
1693;SDS011;844;47.058;15.472;2022-08-25T09:06:11;14.60;;;13.20;;
1693;SDS011;844;47.058;15.472;2022-08-25T09:08:46;13.67;;;12.57;;
1693;SDS011;844;47.058;15.472;2022-08-25T09:11:19;14.80;;;13.27;;
1693;SDS011;844;47.058;15.472;2022-08-25T09:14:10;15.10;;;12.10;;
1693;SDS011;844;47.058;15.472;2022-08-25T09:17:04;15.17;;;12.13;;
1693;SDS011;844;47.058;15.472;2022-08-25T09:22:48;16.20;;;12.87;;
1693;SDS011;844;47.058;15.472;2022-08-25T09:25:27;17.57;;;14.10;;
1693;SDS011;844;47.058;15.472;2022-08-25T09:28:22;14.67;;;12.90;;
1693;SDS011;844;47.058;15.472;2022-08-25T09:31:03;16.80;;;13.70;;
1693;SDS011;844;47.058;15.472;2022-08-25T09:33:55;14.07;;;12.67;;
1693;SDS011;844;47.058;15.472;2022-08-25T09:36:30;14.00;;;11.40;;
1693;SDS011;844;47.058;15.472;2022-08-25T09:39:04;15.07;;;12.20;;
1693;SDS011;844;47.058;15.472;2022-08-25T09:41:40;14.93;;;13.63;;
1693;SDS011;844;47.058;15.472;2022-08-25T09:44:16;13.67;;;12.17;;
1693;SDS011;844;47.058;15.472;2022-08-25T09:47:12;14.27;;;12.10;;
1693;SDS011;844;47.058;15.472;2022-08-25T09:49:50;17.13;;;12.47;;
1693;SDS011;844;47.058;15.472;2022-08-25T09:52:30;14.83;;;13.47;;
1693;SDS011;844;47.058;15.472;2022-08-25T09:57:59;13.13;;;11.83;;
1693;SDS011;844;47.058;15.472;2022-08-25T10:00:44;14.27;;;12.70;;
1693;SDS011;844;47.058;15.472;2022-08-25T10:03:32;12.73;;;11.50;;
1693;SDS011;844;47.058;15.472;2022-08-25T10:06:06;14.60;;;13.20;;
1693;SDS011;844;47.058;15.472;2022-08-25T10:08:50;14.40;;;13.17;;
1693;SDS011;844;47.058;15.472;2022-08-25T10:11:29;14.23;;;12.80;;
1693;SDS011;844;47.058;15.472;2022-08-25T10:14:06;13.67;;;12.37;;
1693;SDS011;844;47.058;15.472;2022-08-25T10:16:45;15.00;;;12.90;;
1693;SDS011;844;47.058;15.472;2022-08-25T10:19:25;15.30;;;12.80;;
1693;SDS011;844;47.058;15.472;2022-08-25T10:22:02;14.07;;;12.60;;
1693;SDS011;844;47.058;15.472;2022-08-25T10:24:37;13.77;;;12.40;;
1693;SDS011;844;47.058;15.472;2022-08-25T10:27:17;17.20;;;14.60;;
1693;SDS011;844;47.058;15.472;2022-08-25T10:30:03;17.40;;;13.70;;
1693;SDS011;844;47.058;15.472;2022-08-25T10:35:43;15.93;;;14.40;;
1693;SDS011;844;47.058;15.472;2022-08-25T10:38:28;15.57;;;13.00;;
1693;SDS011;844;47.058;15.472;2022-08-25T10:41:19;15.80;;;13.13;;
1693;SDS011;844;47.058;15.472;2022-08-25T10:44:05;14.93;;;13.50;;
1693;SDS011;844;47.058;15.472;2022-08-25T10:47:16;13.90;;;12.47;;
1693;SDS011;844;47.058;15.472;2022-08-25T10:50:13;13.60;;;12.33;;
1693;SDS011;844;47.058;15.472;2022-08-25T10:52:56;14.60;;;13.20;;
1693;SDS011;844;47.058;15.472;2022-08-25T10:55:43;14.63;;;12.80;;
1693;SDS011;844;47.058;15.472;2022-08-25T10:58:44;12.60;;;11.50;;
1693;SDS011;844;47.058;15.472;2022-08-25T11:01:34;14.23;;;12.80;;
1693;SDS011;844;47.058;15.472;2022-08-25T11:04:20;14.00;;;11.90;;
1693;SDS011;844;47.058;15.472;2022-08-25T11:06:57;13.27;;;11.97;;
1693;SDS011;844;47.058;15.472;2022-08-25T11:09:37;11.03;;;10.03;;
1693;SDS011;844;47.058;15.472;2022-08-25T11:12:11;12.37;;;11.27;;
1693;SDS011;844;47.058;15.472;2022-08-25T11:14:48;15.47;;;12.50;;
1693;SDS011;844;47.058;15.472;2022-08-25T11:17:23;13.10;;;11.23;;
1693;SDS011;844;47.058;15.472;2022-08-25T11:19:56;14.17;;;11.77;;
1693;SDS011;844;47.058;15.472;2022-08-25T11:22:38;14.07;;;12.50;;
1693;SDS011;844;47.058;15.472;2022-08-25T11:25:16;11.53;;;10.43;;
1693;SDS011;844;47.058;15.472;2022-08-25T11:27:51;13.23;;;11.27;;
1693;SDS011;844;47.058;15.472;2022-08-25T11:30:28;12.53;;;11.23;;
1693;SDS011;844;47.058;15.472;2022-08-25T11:32:58;11.73;;;10.70;;
1693;SDS011;844;47.058;15.472;2022-08-25T11:35:28;14.93;;;11.73;;
1693;SDS011;844;47.058;15.472;2022-08-25T11:38:07;11.63;;;10.53;;
1693;SDS011;844;47.058;15.472;2022-08-25T11:41:03;11.93;;;10.80;;
1693;SDS011;844;47.058;15.472;2022-08-25T11:43:53;13.03;;;11.73;;
1693;SDS011;844;47.058;15.472;2022-08-25T11:46:51;13.10;;;11.67;;
1693;SDS011;844;47.058;15.472;2022-08-25T11:49:50;11.00;;;10.00;;
1693;SDS011;844;47.058;15.472;2022-08-25T11:52:40;11.77;;;10.70;;
1693;SDS011;844;47.058;15.472;2022-08-25T11:55:17;11.87;;;10.77;;
1693;SDS011;844;47.058;15.472;2022-08-25T11:57:51;12.50;;;11.47;;
1693;SDS011;844;47.058;15.472;2022-08-25T12:00:42;12.27;;;10.93;;
1693;SDS011;844;47.058;15.472;2022-08-25T12:06:20;12.33;;;11.00;;
1693;SDS011;844;47.058;15.472;2022-08-25T12:09:15;15.77;;;11.50;;
1693;SDS011;844;47.058;15.472;2022-08-25T12:11:50;12.70;;;11.43;;
1693;SDS011;844;47.058;15.472;2022-08-25T12:14:44;12.60;;;11.40;;
1693;SDS011;844;47.058;15.472;2022-08-25T12:17:22;13.07;;;10.93;;
1693;SDS011;844;47.058;15.472;2022-08-25T12:20:05;12.00;;;10.93;;
1693;SDS011;844;47.058;15.472;2022-08-25T12:22:42;10.97;;;10.07;;
1693;SDS011;844;47.058;15.472;2022-08-25T12:25:34;11.73;;;10.63;;
1693;SDS011;844;47.058;15.472;2022-08-25T12:28:32;13.27;;;11.97;;
1693;SDS011;844;47.058;15.472;2022-08-25T12:34:37;19.83;;;13.80;;
1693;SDS011;844;47.058;15.472;2022-08-25T12:37:22;12.63;;;11.47;;
1693;SDS011;844;47.058;15.472;2022-08-25T12:39:56;12.70;;;10.40;;
1693;SDS011;844;47.058;15.472;2022-08-25T12:42:29;12.87;;;11.67;;
1693;SDS011;844;47.058;15.472;2022-08-25T12:45:08;13.53;;;12.13;;
1693;SDS011;844;47.058;15.472;2022-08-25T12:51:58;11.37;;;10.20;;
1693;SDS011;844;47.058;15.472;2022-08-25T12:54:38;17.07;;;12.83;;
1693;SDS011;844;47.058;15.472;2022-08-25T12:57:21;13.20;;;12.13;;
1693;SDS011;844;47.058;15.472;2022-08-25T13:00:10;12.27;;;11.13;;
1693;SDS011;844;47.058;15.472;2022-08-25T13:02:52;13.03;;;11.83;;
1693;SDS011;844;47.058;15.472;2022-08-25T13:06:14;13.63;;;10.33;;
1693;SDS011;844;47.058;15.472;2022-08-25T13:12:08;10.97;;;9.87;;
1693;SDS011;844;47.058;15.472;2022-08-25T13:14:45;10.93;;;9.93;;
1693;SDS011;844;47.058;15.472;2022-08-25T13:17:25;10.97;;;9.97;;
1693;SDS011;844;47.058;15.472;2022-08-25T13:20:13;10.40;;;8.60;;
1693;SDS011;844;47.058;15.472;2022-08-25T13:22:46;12.70;;;10.60;;
1693;SDS011;844;47.058;15.472;2022-08-25T13:25:25;11.03;;;9.97;;
1693;SDS011;844;47.058;15.472;2022-08-25T13:28:00;12.13;;;9.50;;
1693;SDS011;844;47.058;15.472;2022-08-25T13:30:37;9.80;;;9.00;;
1693;SDS011;844;47.058;15.472;2022-08-25T13:33:15;9.50;;;8.70;;
1693;SDS011;844;47.058;15.472;2022-08-25T13:35:48;10.00;;;9.00;;
1693;SDS011;844;47.058;15.472;2022-08-25T13:38:41;10.27;;;9.23;;
1693;SDS011;844;47.058;15.472;2022-08-25T13:41:17;9.43;;;8.63;;
1693;SDS011;844;47.058;15.472;2022-08-25T13:43:55;11.37;;;10.17;;
1693;SDS011;844;47.058;15.472;2022-08-25T13:46:28;12.13;;;10.70;;
1693;SDS011;844;47.058;15.472;2022-08-25T13:49:02;11.10;;;10.10;;
1693;SDS011;844;47.058;15.472;2022-08-25T13:51:34;11.37;;;10.23;;
1693;SDS011;844;47.058;15.472;2022-08-25T13:54:18;11.73;;;10.57;;
1693;SDS011;844;47.058;15.472;2022-08-25T13:56:53;15.43;;;10.50;;
1693;SDS011;844;47.058;15.472;2022-08-25T13:59:34;11.23;;;10.20;;
1693;SDS011;844;47.058;15.472;2022-08-25T14:02:07;10.13;;;9.23;;
1693;SDS011;844;47.058;15.472;2022-08-25T14:04:47;12.03;;;10.80;;
1693;SDS011;844;47.058;15.472;2022-08-25T14:07:24;11.40;;;10.37;;
1693;SDS011;844;47.058;15.472;2022-08-25T14:10:00;10.20;;;9.20;;
1693;SDS011;844;47.058;15.472;2022-08-25T14:12:40;10.33;;;9.30;;
1693;SDS011;844;47.058;15.472;2022-08-25T14:15:25;11.23;;;10.13;;
1693;SDS011;844;47.058;15.472;2022-08-25T14:17:59;11.07;;;9.90;;
1693;SDS011;844;47.058;15.472;2022-08-25T14:20:34;11.43;;;10.60;;
1693;SDS011;844;47.058;15.472;2022-08-25T14:23:08;9.77;;;8.83;;
1693;SDS011;844;47.058;15.472;2022-08-25T14:25:44;12.23;;;11.00;;
1693;SDS011;844;47.058;15.472;2022-08-25T14:28:20;15.27;;;9.87;;
1693;SDS011;844;47.058;15.472;2022-08-25T14:30:55;13.03;;;10.40;;
1693;SDS011;844;47.058;15.472;2022-08-25T14:33:32;13.40;;;10.53;;
1693;SDS011;844;47.058;15.472;2022-08-25T14:36:04;11.90;;;9.90;;
1693;SDS011;844;47.058;15.472;2022-08-25T14:38:34;10.47;;;9.47;;
1693;SDS011;844;47.058;15.472;2022-08-25T14:41:09;10.97;;;10.00;;
1693;SDS011;844;47.058;15.472;2022-08-25T14:43:42;11.03;;;9.80;;
1693;SDS011;844;47.058;15.472;2022-08-25T14:46:13;10.80;;;9.70;;
1693;SDS011;844;47.058;15.472;2022-08-25T14:48:50;11.93;;;10.77;;
1693;SDS011;844;47.058;15.472;2022-08-25T14:51:25;11.80;;;10.17;;
1693;SDS011;844;47.058;15.472;2022-08-25T14:53:58;12.20;;;10.10;;
1693;SDS011;844;47.058;15.472;2022-08-25T14:56:31;12.20;;;10.47;;
1693;SDS011;844;47.058;15.472;2022-08-25T14:59:03;10.50;;;9.20;;
1693;SDS011;844;47.058;15.472;2022-08-25T15:01:33;11.80;;;10.67;;
1693;SDS011;844;47.058;15.472;2022-08-25T15:04:04;10.67;;;9.67;;
1693;SDS011;844;47.058;15.472;2022-08-25T15:06:38;11.40;;;10.30;;
1693;SDS011;844;47.058;15.472;2022-08-25T15:09:10;10.40;;;8.70;;
1693;SDS011;844;47.058;15.472;2022-08-25T15:11:42;11.87;;;9.13;;
1693;SDS011;844;47.058;15.472;2022-08-25T15:14:18;9.60;;;8.70;;
1693;SDS011;844;47.058;15.472;2022-08-25T15:16:59;10.07;;;8.50;;
1693;SDS011;844;47.058;15.472;2022-08-25T15:19:29;10.67;;;8.87;;
1693;SDS011;844;47.058;15.472;2022-08-25T15:22:00;9.30;;;8.57;;
1693;SDS011;844;47.058;15.472;2022-08-25T15:24:29;10.03;;;9.23;;
1693;SDS011;844;47.058;15.472;2022-08-25T15:27:04;10.37;;;9.07;;
1693;SDS011;844;47.058;15.472;2022-08-25T15:29:37;9.60;;;8.73;;
1693;SDS011;844;47.058;15.472;2022-08-25T15:32:10;11.57;;;10.47;;
1693;SDS011;844;47.058;15.472;2022-08-25T15:34:40;10.57;;;9.50;;
1693;SDS011;844;47.058;15.472;2022-08-25T15:37:12;12.10;;;10.03;;
1693;SDS011;844;47.058;15.472;2022-08-25T15:39:44;10.50;;;9.50;;
1693;SDS011;844;47.058;15.472;2022-08-25T15:42:14;10.13;;;9.13;;
1693;SDS011;844;47.058;15.472;2022-08-25T15:44:45;12.33;;;11.00;;
1693;SDS011;844;47.058;15.472;2022-08-25T15:47:19;10.53;;;9.70;;
1693;SDS011;844;47.058;15.472;2022-08-25T15:49:50;10.87;;;9.93;;
1693;SDS011;844;47.058;15.472;2022-08-25T15:52:32;9.47;;;8.70;;
1693;SDS011;844;47.058;15.472;2022-08-25T15:55:13;10.57;;;9.50;;
1693;SDS011;844;47.058;15.472;2022-08-25T15:57:45;10.70;;;9.90;;
1693;SDS011;844;47.058;15.472;2022-08-25T16:00:19;13.70;;;9.87;;
1693;SDS011;844;47.058;15.472;2022-08-25T16:02:48;11.07;;;9.97;;
1693;SDS011;844;47.058;15.472;2022-08-25T16:05:19;9.77;;;9.07;;
1693;SDS011;844;47.058;15.472;2022-08-25T16:07:51;15.30;;;11.10;;
1693;SDS011;844;47.058;15.472;2022-08-25T16:10:21;11.83;;;10.63;;
1693;SDS011;844;47.058;15.472;2022-08-25T16:12:50;11.93;;;10.60;;